北九州空港の過去48時間の天気

北九州空港 (Kitakyushu)

現在時刻: 10/16 15:51 JST (10/16 06:51 UTC) 以下の時間は現地時間です。

過去48時間のMETAR気象情報
時間 風向 風速(m/s) 視程 気温(℃) 湿度(%) 気圧(hPa) 天気現象
16 15:00 不定 1 10km以上 20 64 1011
16 14:00 南東 2 10km以上 20 64 1011
16 13:00 南東 2 10km以上 20 64 1012
16 12:00 南東 2 10km以上 20 64 1013
16 11:00 北東 2 10km以上 19 64 1014
16 10:00 北北東 2 10km以上 19 64 1014
16 09:00 3 10km以上 19 64 1015
16 08:00 北北東 2 10km以上 18 68 1015
16 07:00 北西 2 10km以上 17 72 1015
16 06:00 西北西 2 10km以上 17 72 1015
16 05:00 西 1 10km以上 17 72 1015
16 04:00 西北西 2 10km以上 17 72 1015
16 03:00 西 2 10km以上 18 64 1016
16 02:00 西北西 2 10km以上 18 68 1016
16 01:00 北西 2 10km以上 18 68 1016
16 00:00 西 2 10km以上 18 68 1017
15 23:00 西北西 3 10km以上 18 68 1017
15 22:00 西北西 3 10km以上 18 68 1017
15 21:00 北西 3 10km以上 18 68 1017
15 20:00 北北西 4 10km以上 18 68 1017
15 19:00 北西 4 10km以上 19 64 1017
15 18:00 北西 4 10km以上 20 60 1016
15 17:00 北西 6 10km以上 21 49 1016
15 16:00 西北西 6 10km以上 22 46 1016
15 15:00 北西 4 10km以上 22 43 1016
15 14:00 不定 1 10km以上 22 43 1016
15 13:00 北西 4 10km以上 23 41 1017
15 12:00 東北東 2 10km以上 22 46 1018
15 11:00 北東 2 10km以上 21 53 1018
15 10:00 2 10km以上 21 53 1018
15 09:00 不定 1 10km以上 20 56 1019
15 08:00 北西 2 10km以上 19 64 1019
15 07:00 北西 2 10km以上 17 77 1019
15 06:00 西南西 2 10km以上 18 64 1019
15 05:00 南西 2 10km以上 18 68 1019
15 04:00 西北西 1 10km以上 18 68 1019
15 03:00 不定 1 10km以上 18 64 1019
15 02:00 北北西 2 10km以上 18 64 1019
15 01:00 西北西 2 10km以上 18 60 1020
15 00:00 北西 2 10km以上 18 64 1019
14 23:00 北北西 2 10km以上 19 60 1020
14 22:00 西南西 2 10km以上 19 56 1020
14 21:00 北北西 3 10km以上 19 60 1019
14 20:00 北西 2 10km以上 19 60 1020
14 19:00 5 10km以上 20 49 1020
14 18:00 北北東 5 10km以上 20 49 1019
14 17:00 5 10km以上 21 43 1020
14 16:00 西北西 4 10km以上 21 49 1019
RJFR 160600Z VRB01KT 9999 FEW025 BKN120 20/13 Q1011
RJFR 160500Z 13004KT 090V180 9999 FEW030 BKN130 BKN/// 20/13 Q1011
RJFR 160400Z 13003KT 080V170 9999 FEW030 BKN140 BKN/// 20/13 Q1012
RJFR 160300Z 14003KT 100V170 9999 FEW030 BKN150 BKN/// 20/13 Q1013
RJFR 160200Z 05003KT 350V080 9999 FEW030 BKN/// 19/12 Q1014
RJFR 160100Z 03004KT 9999 FEW025 BKN/// 19/12 Q1014
RJFR 160000Z 01005KT 9999 FEW025 BKN/// 19/12 Q1015
RJFR 152300Z 02004KT 340V050 9999 FEW030 BKN/// 18/12 Q1015
RJFR 152200Z 32004KT 9999 FEW030 BKN/// 17/12 Q1015
RJFR 152100Z 30003KT 9999 FEW030 BKN/// 17/12 Q1015
RJFR 152000Z 27002KT 9999 FEW030 BKN/// 17/12 Q1015
RJFR 151900Z 30003KT 9999 FEW030 BKN/// 17/12 Q1015
RJFR 151800Z 27003KT 9999 FEW030 BKN/// 18/11 Q1016
RJFR 151700Z 30004KT 9999 FEW030 BKN/// 18/12 Q1016
RJFR 151600Z 31004KT 9999 FEW030 BKN/// 18/12 Q1016
RJFR 151500Z 26003KT 9999 FEW030 BKN/// 18/12 Q1017
RJFR 151400Z 30005KT 9999 FEW030 BKN/// 18/12 Q1017
RJFR 151300Z 30005KT 9999 FEW030 BKN/// 18/12 Q1017
RJFR 151200Z 32005KT 9999 FEW030 SCT/// 18/12 Q1017
RJFR 151100Z 34007KT 9999 FEW030 SCT/// 18/12 Q1017
RJFR 151000Z 31007KT 9999 FEW020 BKN/// 19/12 Q1017
RJFR 150900Z 31008KT 9999 FEW020 BKN/// 20/12 Q1016
RJFR 150800Z 31012KT 9999 FEW040 BKN/// 21/10 Q1016
RJFR 150700Z 30011KT 9999 FEW030 BKN/// 22/10 Q1016
RJFR 150600Z 31008KT 270V340 9999 FEW030 BKN/// 22/09 Q1016
RJFR 150500Z VRB02KT 9999 FEW030 BKN/// 22/09 Q1016
RJFR 150400Z 31007KT 260V010 9999 FEW035 BKN/// 23/09 Q1017
RJFR 150300Z 07003KT 020V110 9999 FEW035 BKN/// 22/10 Q1018
RJFR 150200Z 04004KT 9999 FEW030 BKN/// 21/11 Q1018
RJFR 150100Z 01003KT 330V070 9999 FEW030 BKN/// 21/11 Q1018
RJFR 150000Z VRB01KT 9999 FEW030 BKN/// 20/11 Q1019
RJFR 142300Z 32003KT 9999 FEW030 BKN/// 19/12 Q1019
RJFR 142200Z 31004KT 9999 FEW030 SCT180 BKN/// 17/13 Q1019
RJFR 142100Z 24003KT 9999 FEW030 BKN180 BKN/// 18/11 Q1019
RJFR 142000Z 23003KT 9999 FEW030 BKN/// 18/12 Q1019
RJFR 141900Z 29001KT 9999 FEW030 BKN/// 18/12 Q1019
RJFR 141800Z VRB02KT 9999 FEW030 SCT130 BKN/// 18/11 Q1019
RJFR 141700Z 34003KT 9999 FEW030 SCT150 BKN/// 18/11 Q1019
RJFR 141600Z 30003KT 9999 FEW030 BKN160 BKN/// 18/10 Q1020
RJFR 141500Z 31004KT 9999 FEW030 BKN160 BKN/// 18/11 Q1019
RJFR 141400Z 33003KT 9999 FEW030 BKN160 BKN/// 19/11 Q1020
RJFR 141300Z 25003KT 9999 FEW030 BKN150 19/10 Q1020
RJFR 141200Z 34006KT 9999 FEW030 BKN150 19/11 Q1019
RJFR 141100Z 32004KT 9999 FEW030 BKN150 19/11 Q1020
RJFR 141000Z 36010KT 9999 FEW030 BKN140 BKN160 20/09 Q1020
RJFR 140900Z 02010KT 9999 FEW030 BKN140 BKN160 20/09 Q1019
RJFR 140800Z 36010KT 9999 FEW030 BKN/// 21/08 Q1020
RJFR 140700Z 29008KT 9999 FEW030 BKN/// 21/10 Q1019